KEDE/EDE METAR and TAF weather

Enter ICAO airport designator
Station Type Date Time Source
KEDE METAR 2018/07/19 06:55 UTC NOAA

KEDE 190655Z AUTO 00000KT 10SM SCT055 21/20 A3000 RMK AO2 T02090197


Station Type Date Time Source
KEDE Decoded METAR 2018/07/19 06:55 UTC NOAA

Edenton, Northeastern Regional Airport, NC, United States (KEDE) 36-01-40N 076-34-02W
Jul 19, 2018 - 02:55 AM EDT / 2018.07.19 0655 UTC
Wind: Calm:0
Visibility: 10 mile(s):0
Sky conditions: partly cloudy
Temperature: 69.6 F (20.9 C)
Dew Point: 67.5 F (19.7 C)
Relative Humidity: 92%
Pressure (altimeter): 30 in. Hg (1015 hPa)
ob: KEDE 190655Z AUTO 00000KT 10SM SCT055 21/20 A3000 RMK AO2 T02090197
cycle: 7

Station Type Date Time Source
KEDE TAF UTC NOAA

Error!


Example: see airport list